createdAt,value
2022-11-02T00:01:02.313Z,80.63
2022-11-02T00:04:09.383Z,80.74
2022-11-02T00:07:16.580Z,80.63
2022-11-02T00:10:23.475Z,80.43
2022-11-02T00:13:29.994Z,80.33
2022-11-02T00:16:37.243Z,79.98
2022-11-02T00:19:44.257Z,79.88
2022-11-02T00:22:50.847Z,80.19
2022-11-02T00:26:02.060Z,80.22
2022-11-02T00:28:58.189Z,80.43
2022-11-02T00:32:05.306Z,80.43
2022-11-02T00:35:12.734Z,80.33
2022-11-02T00:38:19.251Z,80.33
2022-11-02T00:41:26.564Z,80.43
2022-11-02T00:44:33.502Z,80.63
2022-11-02T00:47:40.351Z,80.74
2022-11-02T00:50:47.613Z,80.74
2022-11-02T00:53:54.603Z,80.69
2022-11-02T01:00:09.022Z,80.29
2022-11-02T01:03:16.116Z,80.29
2022-11-02T01:06:23.070Z,80.39
2022-11-02T01:09:30.116Z,80.39
2022-11-02T01:12:37.007Z,80.49
2022-11-02T01:15:43.968Z,80.39
2022-11-02T01:18:50.898Z,80.39
2022-11-02T01:21:57.722Z,80.60
2022-11-02T01:25:05.141Z,80.69
2022-11-02T01:28:12.019Z,80.49
2022-11-02T01:31:19.038Z,80.49
2022-11-02T01:34:26.070Z,80.60
2022-11-02T01:37:33.492Z,80.60
2022-11-02T01:40:40.442Z,80.69
2022-11-02T01:43:47.494Z,80.69
2022-11-02T01:46:50.962Z,81.01
2022-11-02T01:49:57.907Z,81.35
2022-11-02T01:53:04.804Z,81.45
2022-11-02T01:56:12.282Z,81.65
2022-11-02T01:59:19.196Z,81.96
2022-11-02T02:02:26.081Z,82.27
2022-11-02T02:05:33.478Z,82.37
2022-11-02T02:08:39.977Z,82.71
2022-11-02T02:11:47.408Z,83.13
2022-11-02T02:14:54.130Z,83.44
2022-11-02T02:18:01.281Z,83.74
2022-11-02T02:21:08.680Z,83.78
2022-11-02T02:24:15.172Z,83.98
2022-11-02T02:27:22.371Z,83.74
2022-11-02T02:30:29.487Z,83.74
2022-11-02T02:33:36.003Z,83.74
2022-11-02T02:36:43.281Z,83.44
2022-11-02T02:39:50.291Z,83.44
2022-11-02T02:42:56.846Z,83.64
2022-11-02T02:46:03.755Z,83.95
2022-11-02T02:49:10.604Z,84.25
2022-11-02T02:52:17.596Z,84.05
2022-11-02T02:55:24.827Z,84.36
2022-11-02T02:58:31.621Z,84.56
2022-11-02T03:01:38.596Z,84.11
2022-11-02T03:04:45.502Z,83.36
2022-11-02T03:07:52.650Z,82.64
2022-11-02T03:10:59.551Z,82.43
2022-11-02T03:14:06.129Z,82.43
2022-11-02T03:17:13.442Z,82.43
2022-11-02T03:20:20.652Z,82.23
2022-11-02T03:23:27.214Z,82.09
2022-11-02T03:26:34.606Z,81.88
2022-11-02T03:29:41.153Z,81.99
2022-11-02T03:32:48.427Z,81.65
2022-11-02T03:35:55.683Z,81.03
2022-11-02T03:39:02.319Z,80.38
2022-11-02T03:42:09.658Z,79.73
2022-11-02T03:45:16.839Z,79.63
2022-11-02T03:48:23.309Z,79.63
2022-11-02T03:51:30.540Z,79.39
2022-11-02T03:54:37.431Z,79.18
2022-11-02T03:57:44.421Z,79.39
2022-11-02T04:00:51.861Z,79.59
2022-11-02T04:03:58.762Z,79.80
2022-11-02T04:07:05.774Z,79.69
2022-11-02T04:10:12.872Z,79.49
2022-11-02T04:13:19.707Z,79.49
2022-11-02T04:16:28.367Z,79.69
2022-11-02T04:19:35.318Z,79.69
2022-11-02T04:22:42.439Z,79.18
2022-11-02T04:25:49.488Z,79.18
2022-11-02T04:28:56.459Z,79.28
2022-11-02T04:32:03.725Z,79.39
2022-11-02T04:35:10.670Z,79.39
2022-11-02T04:38:17.535Z,79.69
2022-11-02T04:41:24.410Z,79.83
2022-11-02T04:44:31.044Z,80.44
2022-11-02T04:47:38.413Z,80.55
2022-11-02T04:50:45.453Z,80.44
2022-11-02T04:53:52.123Z,80.34
2022-11-02T04:56:59.249Z,80.10
2022-11-02T05:00:06.081Z,80.10
2022-11-02T05:03:12.945Z,80.10
2022-11-02T05:06:20.133Z,80.10
2022-11-02T05:09:27.100Z,80.00
2022-11-02T05:12:34.050Z,80.30
2022-11-02T05:15:41.379Z,80.20
2022-11-02T05:18:48.369Z,80.44
2022-11-02T05:21:55.330Z,80.75
2022-11-02T05:25:02.331Z,81.20
2022-11-02T05:28:09.662Z,81.51
2022-11-02T05:31:16.502Z,81.71
2022-11-02T05:34:23.403Z,82.36
2022-11-02T05:37:30.677Z,82.77
2022-11-02T05:40:37.586Z,83.22
2022-11-02T05:43:45.051Z,83.42
2022-11-02T05:46:52.953Z,83.83
2022-11-02T05:50:00.377Z,83.93
2022-11-02T05:53:07.869Z,84.17
2022-11-02T05:56:14.895Z,84.17
2022-11-02T05:59:21.569Z,84.48
2022-11-02T06:02:28.848Z,84.89
2022-11-02T06:05:36.101Z,85.24
2022-11-02T06:08:43.090Z,85.44
2022-11-02T06:11:50.473Z,85.55
2022-11-02T06:14:57.143Z,85.75
2022-11-02T06:18:04.398Z,85.85
2022-11-02T06:21:11.855Z,85.96
2022-11-02T06:24:18.425Z,86.16
2022-11-02T06:27:25.684Z,86.46
2022-11-02T06:30:32.882Z,86.57
2022-11-02T06:33:39.416Z,86.71
2022-11-02T06:36:46.741Z,86.71
2022-11-02T06:39:53.734Z,86.91
2022-11-02T06:43:15.977Z,86.88
2022-11-02T06:46:05.178Z,87.12
2022-11-02T06:49:12.117Z,87.08
2022-11-02T06:52:19.069Z,86.98
2022-11-02T06:55:26.316Z,86.98
2022-11-02T06:58:33.264Z,86.88
2022-11-02T07:01:40.271Z,86.63
2022-11-02T07:04:47.162Z,86.53
2022-11-02T07:07:54.636Z,86.43
2022-11-02T07:11:01.703Z,86.32
2022-11-02T07:14:08.405Z,85.97
2022-11-02T07:17:15.736Z,85.63
2022-11-02T07:20:22.327Z,85.12
2022-11-02T07:23:29.587Z,85.02
2022-11-02T07:26:37.133Z,84.67
2022-11-02T07:29:43.790Z,84.57
2022-11-02T07:32:51.067Z,84.67
2022-11-02T07:35:58.043Z,84.47
2022-11-02T07:39:04.665Z,84.47
2022-11-02T07:42:11.883Z,84.22
2022-11-02T07:45:18.921Z,83.87
2022-11-02T07:48:25.981Z,83.57
2022-11-02T07:51:33.027Z,83.26
2022-11-02T07:54:44.410Z,83.51
2022-11-02T07:57:40.974Z,83.40
2022-11-02T08:00:48.195Z,83.81
2022-11-02T08:03:55.125Z,83.92
2022-11-02T08:07:02.247Z,83.67
2022-11-02T08:10:09.426Z,82.61
2022-11-02T08:13:16.578Z,82.61
2022-11-02T08:16:23.379Z,82.51
2022-11-02T08:19:30.650Z,82.31
2022-11-02T08:22:38.011Z,82.27
2022-11-02T08:25:45.063Z,81.21
2022-11-02T08:28:54.051Z,80.42
2022-11-02T08:32:01.243Z,79.30
2022-11-02T08:35:07.847Z,79.50
2022-11-02T08:38:15.077Z,79.10
2022-11-02T08:41:22.294Z,79.00
2022-11-02T08:44:28.815Z,79.00
2022-11-02T08:47:36.007Z,78.28
2022-11-02T08:50:43.248Z,76.82
2022-11-02T08:53:51.829Z,76.82
2022-11-02T08:56:59.557Z,77.23
2022-11-02T09:00:06.658Z,77.29
2022-11-02T09:03:13.761Z,77.09
2022-11-02T09:06:21.121Z,76.07
2022-11-02T09:09:27.965Z,76.04
2022-11-02T09:12:35.083Z,75.73
2022-11-02T09:15:42.359Z,75.84
2022-11-02T09:18:49.304Z,75.12
2022-11-02T09:21:56.237Z,75.84
2022-11-02T09:25:03.131Z,75.12
2022-11-02T09:28:10.797Z,75.12
2022-11-02T09:31:17.950Z,74.58
2022-11-02T09:34:25.195Z,73.67
2022-11-02T09:37:32.834Z,73.16
2022-11-02T09:40:40.139Z,72.96
2022-11-02T09:43:47.341Z,73.02
2022-11-02T09:47:40.150Z,72.52
2022-11-02T09:49:58.855Z,71.88
2022-11-02T09:53:06.909Z,71.47
2022-11-02T09:56:14.393Z,71.80
2022-11-02T09:59:21.345Z,71.80
2022-11-02T10:02:28.961Z,71.67
2022-11-02T10:05:35.777Z,70.52
2022-11-02T10:08:43.158Z,69.57
2022-11-02T10:11:50.550Z,68.46
2022-11-02T10:14:57.450Z,68.59
2022-11-02T10:18:04.781Z,68.70
2022-11-02T10:21:12.373Z,67.68
2022-11-02T10:24:19.516Z,67.21
2022-11-02T10:27:26.855Z,65.86
2022-11-02T10:30:33.856Z,64.78
2022-11-02T10:33:41.058Z,63.49
2022-11-02T10:36:48.396Z,63.92
2022-11-02T10:39:55.537Z,64.13
2022-11-02T10:43:02.762Z,64.43
2022-11-02T10:46:09.989Z,65.14
2022-11-02T10:49:17.276Z,65.55
2022-11-02T10:52:24.618Z,65.55
2022-11-02T10:55:31.811Z,65.45
2022-11-02T10:58:39.159Z,65.45
2022-11-02T11:01:46.551Z,65.34
2022-11-02T11:04:53.612Z,65.34
2022-11-02T11:08:00.989Z,65.99
2022-11-02T11:11:07.792Z,66.69
2022-11-02T11:20:23.651Z,61.79
2022-11-02T11:23:31.169Z,60.37
2022-11-02T11:26:38.199Z,60.68
2022-11-02T11:29:45.360Z,60.27
2022-11-02T11:32:52.900Z,59.05
2022-11-02T11:36:00.341Z,59.86
2022-11-02T11:39:07.673Z,59.48
2022-11-02T11:42:15.160Z,60.30
2022-11-02T11:45:22.502Z,60.98
2022-11-02T11:48:29.775Z,60.52
2022-11-02T11:51:36.859Z,58.03
2022-11-02T11:54:44.395Z,57.70
2022-11-02T11:57:51.479Z,56.69
2022-11-02T12:00:58.750Z,57.29
2022-11-02T12:04:06.291Z,57.40
2022-11-02T12:07:13.646Z,56.41
2022-11-02T12:10:20.622Z,57.02
2022-11-02T12:13:27.842Z,57.04
2022-11-02T12:16:34.763Z,57.65
2022-11-02T12:19:42.244Z,58.39
2022-11-02T12:22:49.586Z,58.97
2022-11-02T12:26:00.399Z,58.59
2022-11-02T12:29:00.008Z,57.88
2022-11-02T12:32:07.077Z,58.49
2022-11-02T12:35:30.583Z,59.20
2022-11-02T12:38:18.959Z,59.70
2022-11-02T12:41:25.780Z,59.50
2022-11-02T12:44:33.255Z,57.58
2022-11-02T12:47:40.762Z,57.17
2022-11-02T12:50:47.651Z,55.73
2022-11-02T12:53:55.222Z,55.43
2022-11-02T12:57:02.710Z,54.59
2022-11-02T13:00:09.676Z,54.51
2022-11-02T13:03:17.407Z,54.99
2022-11-02T13:06:24.789Z,55.93
2022-11-02T13:09:32.008Z,55.52
2022-11-02T13:12:39.788Z,56.03
2022-11-02T13:15:46.753Z,57.28
2022-11-02T13:18:53.557Z,56.77
2022-11-02T13:22:00.581Z,56.46
2022-11-02T13:25:07.726Z,57.30
2022-11-02T13:28:14.926Z,57.71
2022-11-02T13:31:22.204Z,57.91
2022-11-02T13:34:29.246Z,58.24
2022-11-02T13:37:36.168Z,59.26
2022-11-02T13:40:43.256Z,58.45
2022-11-02T13:43:50.161Z,57.84
2022-11-02T13:46:58.792Z,58.04
2022-11-02T13:50:06.369Z,58.04
2022-11-02T13:53:13.342Z,57.46
2022-11-02T13:56:20.369Z,57.76
2022-11-02T13:59:27.441Z,58.06
2022-11-02T14:02:34.526Z,57.56
2022-11-02T14:05:41.136Z,57.35
2022-11-02T14:08:48.615Z,58.37
2022-11-02T14:11:55.235Z,58.20
2022-11-02T14:15:02.526Z,58.63
2022-11-02T14:18:09.878Z,59.14
2022-11-02T14:21:16.438Z,60.59
2022-11-02T14:24:23.848Z,60.69
2022-11-02T14:27:31.050Z,60.79
2022-11-02T14:30:37.718Z,60.38
2022-11-02T14:33:44.933Z,60.59
2022-11-02T14:36:52.002Z,60.59
2022-11-02T14:39:58.962Z,60.18
2022-11-02T14:43:06.610Z,59.67
2022-11-02T14:46:13.725Z,59.77
2022-11-02T14:49:20.788Z,59.57
2022-11-02T14:52:28.035Z,58.96
2022-11-02T14:55:34.977Z,59.16
2022-11-02T14:58:41.825Z,59.50
2022-11-02T15:01:48.904Z,60.21
2022-11-02T15:04:56.428Z,60.61
2022-11-02T15:08:03.629Z,60.44
2022-11-02T15:11:10.571Z,60.75
2022-11-02T15:14:17.872Z,61.46
2022-11-02T15:17:24.859Z,61.79
2022-11-02T15:20:31.803Z,61.90
2022-11-02T15:23:39.183Z,62.40
2022-11-02T15:26:45.733Z,63.04
2022-11-02T15:29:53.037Z,63.86
2022-11-02T15:33:01.906Z,64.40
2022-11-02T15:36:09.325Z,65.01
2022-11-02T15:39:16.725Z,64.60
2022-11-02T15:42:23.829Z,64.94
2022-11-02T15:45:47.848Z,65.34
2022-11-02T15:48:35.552Z,66.19
2022-11-02T15:51:42.470Z,66.70
2022-11-02T15:54:50.022Z,67.24
2022-11-02T15:57:57.587Z,67.65
2022-11-02T16:01:04.232Z,68.09
2022-11-02T16:04:11.450Z,68.91
2022-11-02T16:07:18.712Z,69.76
2022-11-02T16:10:26.344Z,70.61
2022-11-02T16:13:48.677Z,71.66
2022-11-02T16:16:37.736Z,73.23
2022-11-02T16:19:45.299Z,73.85
2022-11-02T16:22:52.789Z,74.90
2022-11-02T16:25:59.437Z,76.57
2022-11-02T16:29:06.887Z,76.40
2022-11-02T16:32:14.031Z,76.61
2022-11-02T16:35:21.182Z,78.08
2022-11-02T16:38:28.111Z,78.63
2022-11-02T16:41:35.497Z,79.14
2022-11-02T16:44:42.775Z,79.59
2022-11-02T16:47:49.352Z,80.21
2022-11-02T16:50:56.876Z,80.55
2022-11-02T16:54:03.867Z,81.16
2022-11-02T16:57:12.124Z,81.57
2022-11-02T17:00:19.645Z,82.03
2022-11-02T17:03:26.507Z,81.92
2022-11-02T17:06:33.687Z,82.95
2022-11-02T17:09:40.957Z,83.61
2022-11-02T17:12:47.500Z,83.19
2022-11-02T17:15:54.941Z,83.85
2022-11-02T17:19:02.260Z,83.44
2022-11-02T17:22:09.291Z,83.85
2022-11-02T17:25:16.619Z,83.44
2022-11-02T17:28:23.282Z,83.44
2022-11-02T17:31:30.552Z,83.54
2022-11-02T17:34:37.774Z,83.33
2022-11-02T17:37:44.420Z,83.78
2022-11-02T17:40:51.864Z,84.20
2022-11-02T17:43:59.223Z,84.81
2022-11-02T17:47:05.935Z,85.26
2022-11-02T17:50:12.948Z,85.36
2022-11-02T17:53:19.596Z,85.06
2022-11-02T17:56:26.853Z,84.64
2022-11-02T17:59:34.237Z,84.64
2022-11-02T18:02:40.927Z,85.51
2022-11-02T18:05:50.303Z,85.20
2022-11-02T18:08:49.331Z,85.61
2022-11-02T18:11:55.948Z,86.47
2022-11-02T18:15:03.120Z,86.58
2022-11-02T18:18:10.049Z,86.68
2022-11-02T18:21:17.440Z,86.37
2022-11-02T18:24:25.500Z,85.71
2022-11-02T18:27:32.540Z,85.44
2022-11-02T18:30:39.692Z,85.44
2022-11-02T18:33:47.079Z,85.34
2022-11-02T18:36:53.774Z,86.00
2022-11-02T18:40:01.082Z,86.93
2022-11-02T18:43:08.438Z,86.82
2022-11-02T18:46:15.586Z,86.31
2022-11-02T18:49:24.096Z,87.07
2022-11-02T18:52:32.288Z,87.07
2022-11-02T18:55:39.565Z,86.87
2022-11-02T18:58:46.999Z,86.66
2022-11-02T19:01:54.078Z,86.24
2022-11-02T19:05:01.109Z,85.83
2022-11-02T19:08:08.238Z,85.79
2022-11-02T19:11:14.792Z,85.17
2022-11-02T19:14:21.719Z,84.77
2022-11-02T19:17:29.492Z,84.52
2022-11-02T19:20:37.171Z,84.42
2022-11-02T19:23:44.216Z,84.52
2022-11-02T19:26:51.064Z,84.56
2022-11-02T19:29:58.384Z,84.66
2022-11-02T19:33:05.793Z,84.45
2022-11-02T19:36:12.832Z,84.25
2022-11-02T19:39:19.763Z,84.21
2022-11-02T19:42:26.645Z,84.14
2022-11-02T19:45:33.926Z,84.14
2022-11-02T19:48:41.339Z,84.25
2022-11-02T19:51:47.948Z,83.84
2022-11-02T19:54:55.191Z,83.94
2022-11-02T19:58:02.337Z,83.84
2022-11-02T20:01:09.020Z,84.05
2022-11-02T20:04:16.148Z,83.94
2022-11-02T20:07:22.740Z,83.94
2022-11-02T20:10:30.121Z,83.53
2022-11-02T20:13:37.640Z,83.63
2022-11-02T20:16:47.388Z,84.05
2022-11-02T20:19:49.002Z,84.05
2022-11-02T20:22:56.402Z,84.05
2022-11-02T20:26:03.113Z,84.14
2022-11-02T20:29:13.654Z,84.49
2022-11-02T20:32:13.211Z,84.39
2022-11-02T20:35:20.125Z,84.70
2022-11-02T20:38:27.427Z,84.84
2022-11-02T20:41:34.455Z,85.36
2022-11-02T20:44:41.786Z,85.15
2022-11-02T20:47:49.286Z,84.94
2022-11-02T20:50:57.021Z,85.05
2022-11-02T20:54:04.883Z,85.30
2022-11-02T20:57:12.301Z,85.30
2022-11-02T21:00:19.695Z,85.85
2022-11-02T21:03:26.719Z,86.78
2022-11-02T21:06:33.651Z,86.68
2022-11-02T21:09:40.834Z,87.13
2022-11-02T21:12:47.733Z,86.92
2022-11-02T21:15:54.491Z,87.02
2022-11-02T21:19:01.653Z,86.71
2022-11-02T21:22:08.194Z,86.71
2022-11-02T21:25:15.474Z,86.82
2022-11-02T21:28:22.643Z,86.71
2022-11-02T21:31:29.194Z,86.82
2022-11-02T21:34:36.585Z,86.71
2022-11-02T21:37:43.482Z,86.82
2022-11-02T21:40:50.484Z,87.13
2022-11-02T21:43:57.547Z,87.02
2022-11-02T21:47:04.515Z,86.78
2022-11-02T21:50:11.559Z,86.68
2022-11-02T21:53:18.999Z,86.88
2022-11-02T21:56:25.661Z,86.78
2022-11-02T21:59:32.992Z,86.78
2022-11-02T22:02:39.989Z,86.78
2022-11-02T22:05:46.819Z,86.88
2022-11-02T22:08:54.239Z,86.16
2022-11-02T22:12:01.100Z,86.36
2022-11-02T22:15:08.122Z,86.71
2022-11-02T22:18:15.330Z,87.44
2022-11-02T22:21:22.163Z,87.74
2022-11-02T22:24:29.145Z,87.81
2022-11-02T22:27:35.684Z,87.40
2022-11-02T22:30:42.862Z,87.08
2022-11-02T22:33:49.648Z,86.82
2022-11-02T22:36:56.593Z,87.13
2022-11-02T22:40:03.984Z,87.85
2022-11-02T22:43:10.515Z,87.85
2022-11-02T22:46:17.984Z,88.31
2022-11-02T22:49:25.175Z,88.71
2022-11-02T22:52:31.775Z,88.71
2022-11-02T22:55:39.206Z,88.92
2022-11-02T22:58:46.657Z,89.03
2022-11-02T23:01:53.442Z,88.92
2022-11-02T23:05:00.849Z,89.23
2022-11-02T23:08:07.746Z,88.71
2022-11-02T23:11:14.848Z,88.92
2022-11-02T23:14:22.260Z,89.13
2022-11-02T23:17:28.881Z,88.92
2022-11-02T23:20:36.249Z,88.55
2022-11-02T23:23:43.073Z,89.17
2022-11-02T23:26:50.032Z,89.42
2022-11-02T23:29:57.059Z,88.90
2022-11-02T23:33:04.310Z,89.73
2022-11-02T23:36:11.378Z,90.29
2022-11-02T23:39:18.230Z,90.60
2022-11-02T23:42:25.401Z,91.11
2022-11-02T23:45:32.031Z,91.28
2022-11-02T23:48:38.955Z,91.17
2022-11-02T23:51:46.215Z,91.59
2022-11-02T23:54:53.104Z,91.65
2022-11-02T23:58:00.127Z,90.99
